Time;durP1;ratioP1;P1;durP2;ratioP2;P2;SDS_P1;SDS_P2;PMS_P1;PMS_P2;Temp;Humidity;BMP_temperature;BMP_pressure;BME280_temperature;BME280_humidity;BME280_pressure;Samples;Min_cycle;Max_cycle;Signal;HPM_P1;HPM_P2
2020/12/05 00:00:32;;;;;;;40.33;27.05;;;2.40;99.90;;;;;;5081280;28;20226;-82
2020/12/05 00:02:58;;;;;;;43.00;28.02;;;2.40;99.90;;;;;;5081248;28;20254;-83
2020/12/05 00:05:25;;;;;;;41.05;28.63;;;2.40;99.90;;;;;;5081281;28;20206;-83
2020/12/05 00:07:51;;;;;;;46.47;28.95;;;2.40;99.90;;;;;;5081498;28;20194;-82
2020/12/05 00:10:18;;;;;;;45.70;27.50;;;2.40;99.90;;;;;;5081324;28;20210;-81
2020/12/05 00:12:44;;;;;;;37.58;27.17;;;2.40;99.90;;;;;;5076583;28;20255;-85
2020/12/05 00:15:11;;;;;;;36.63;24.30;;;2.40;99.90;;;;;;5065842;28;20262;-84
2020/12/05 00:17:38;;;;;;;44.10;28.02;;;2.40;99.90;;;;;;5064102;28;20206;-84
2020/12/05 00:22:41;;;;;;;41.42;27.05;;;2.40;99.90;;;;;;5029027;28;20262;-81
2020/12/05 00:25:08;;;;;;;40.50;26.52;;;2.30;99.90;;;;;;5030338;28;20239;-82
2020/12/05 00:27:35;;;;;;;44.83;26.55;;;2.40;99.90;;;;;;5029533;28;20204;-80
2020/12/05 00:30:02;;;;;;;44.17;26.75;;;2.40;99.90;;;;;;5030313;28;20193;-83
2020/12/05 00:32:28;;;;;;;38.58;27.20;;;2.40;99.90;;;;;;5029404;28;20565;-82
2020/12/05 00:34:54;;;;;;;39.95;26.58;;;2.40;99.90;;;;;;5028242;28;20284;-82
2020/12/05 00:37:21;;;;;;;44.58;27.55;;;2.40;99.90;;;;;;5028612;28;20192;-81
2020/12/05 00:39:47;;;;;;;43.55;26.70;;;2.40;99.90;;;;;;5028824;28;20200;-82
2020/12/05 00:42:13;;;;;;;59.65;35.20;;;2.40;99.90;;;;;;5028907;28;20288;-81
2020/12/05 00:44:40;;;;;;;65.88;41.08;;;2.40;99.90;;;;;;5029297;28;20203;-82
2020/12/05 00:47:07;;;;;;;76.35;50.28;;;2.40;99.90;;;;;;5029087;28;20272;-81
2020/12/05 00:49:33;;;;;;;74.75;49.03;;;2.40;99.90;;;;;;5028664;28;20272;-82
2020/12/05 00:51:59;;;;;;;73.30;50.65;;;2.40;99.90;;;;;;5034619;28;20251;-80
2020/12/05 00:54:26;;;;;;;96.13;62.50;;;2.30;99.90;;;;;;5030714;28;20208;-82
2020/12/05 00:56:52;;;;;;;91.65;58.30;;;2.30;99.90;;;;;;5029674;28;20201;-81
2020/12/05 00:59:18;;;;;;;103.78;57.78;;;2.30;99.90;;;;;;5030655;28;20639;-82
2020/12/05 01:01:52;;;;;;;57.40;38.13;;;2.30;99.90;;;;;;5030698;28;20746;-81
2020/12/05 01:04:18;;;;;;;65.97;40.28;;;2.30;99.90;;;;;;5029094;28;20220;-82
2020/12/05 01:06:45;;;;;;;46.47;28.98;;;2.30;99.90;;;;;;5029399;28;20275;-82
2020/12/05 01:09:11;;;;;;;46.45;29.38;;;2.40;99.90;;;;;;5030778;28;20193;-81
2020/12/05 01:11:37;;;;;;;45.03;28.00;;;2.40;99.90;;;;;;5030662;28;20238;-82
2020/12/05 01:14:04;;;;;;;46.10;28.30;;;2.30;99.90;;;;;;5029619;28;20204;-82
2020/12/05 01:16:31;;;;;;;44.47;28.10;;;2.30;99.90;;;;;;5030616;28;20681;-80
2020/12/05 01:18:58;;;;;;;43.53;27.70;;;2.30;99.90;;;;;;5031227;28;20252;-82
2020/12/05 01:21:25;;;;;;;39.42;27.83;;;2.30;99.90;;;;;;5029716;28;20271;-82
2020/12/05 01:23:51;;;;;;;41.50;28.05;;;2.30;99.90;;;;;;5030124;28;20263;-81
2020/12/05 01:26:21;;;;;;;43.45;25.95;;;2.30;99.90;;;;;;5028586;28;20215;-81
2020/12/05 01:28:47;;;;;;;45.35;28.45;;;2.30;99.90;;;;;;5029383;28;20196;-81
2020/12/05 01:31:14;;;;;;;42.28;26.70;;;2.20;99.90;;;;;;5028947;28;20286;-81
2020/12/05 01:33:40;;;;;;;44.28;25.85;;;2.20;99.90;;;;;;5029656;28;20205;-82
2020/12/05 01:36:07;;;;;;;45.63;27.70;;;2.20;99.90;;;;;;5030079;28;20215;-81
2020/12/05 01:38:34;;;;;;;38.92;25.52;;;2.20;99.90;;;;;;5029592;28;20222;-82
2020/12/05 01:41:01;;;;;;;42.88;28.73;;;2.20;99.90;;;;;;5030027;28;20246;-82
2020/12/05 01:43:29;;;;;;;40.90;26.83;;;2.20;99.90;;;;;;5030375;28;20220;-82
2020/12/05 01:45:57;;;;;;;37.83;26.20;;;2.20;99.90;;;;;;5029951;28;20633;-82
2020/12/05 01:48:24;;;;;;;41.28;26.20;;;2.30;99.90;;;;;;5029926;28;20283;-82
2020/12/05 01:50:54;;;;;;;44.72;27.58;;;2.30;99.90;;;;;;5028880;28;20287;-82
2020/12/05 01:53:22;;;;;;;37.83;25.75;;;2.30;99.90;;;;;;5028812;28;20264;-82
2020/12/05 01:55:49;;;;;;;39.10;24.92;;;2.30;99.90;;;;;;5027467;28;20208;-82
2020/12/05 01:58:16;;;;;;;45.88;28.35;;;2.30;99.90;;;;;;5029623;28;20216;-82
2020/12/05 02:00:44;;;;;;;39.97;26.50;;;2.30;99.90;;;;;;5029523;28;20244;-82
2020/12/05 02:03:12;;;;;;;40.60;26.45;;;2.30;99.90;;;;;;5031757;28;20220;-82
2020/12/05 02:05:53;;;;;;;42.00;26.20;;;2.30;99.90;;;;;;5034898;28;20204;-81
2020/12/05 02:08:33;;;;;;;39.63;25.85;;;2.20;99.90;;;;;;5034960;28;20296;-82
2020/12/05 02:11:02;;;;;;;42.95;25.70;;;2.20;99.90;;;;;;5035905;28;20231;-80
2020/12/05 02:13:35;;;;;;;42.97;28.45;;;2.20;99.90;;;;;;5036968;28;20224;-81
2020/12/05 02:16:02;;;;;;;41.90;26.45;;;2.20;99.90;;;;;;5035866;28;20203;-79
2020/12/05 02:18:31;;;;;;;49.00;29.60;;;2.20;99.90;;;;;;5036274;28;20267;-80
2020/12/05 02:21:02;;;;;;;41.63;28.15;;;2.20;99.90;;;;;;5032309;28;20323;-81
2020/12/05 02:23:30;;;;;;;42.08;26.55;;;2.10;99.90;;;;;;5028308;28;20776;-81
2020/12/05 02:26:02;;;;;;;49.33;27.77;;;2.10;99.90;;;;;;5027421;28;20280;-81
2020/12/05 02:28:29;;;;;;;44.75;28.00;;;2.10;99.90;;;;;;5028917;28;20212;-81
2020/12/05 02:30:55;;;;;;;40.45;27.25;;;2.10;99.90;;;;;;5033018;28;20275;-80
2020/12/05 02:33:22;;;;;;;48.60;28.30;;;2.00;99.90;;;;;;5033064;28;20200;-81
2020/12/05 02:35:48;;;;;;;40.25;25.70;;;2.00;99.90;;;;;;5028777;28;20252;-81
2020/12/05 02:38:18;;;;;;;44.03;27.73;;;2.00;99.90;;;;;;5028387;28;20757;-81
2020/12/05 02:40:45;;;;;;;44.65;27.73;;;2.10;99.90;;;;;;5028276;28;20235;-81
2020/12/05 02:43:12;;;;;;;44.92;28.20;;;2.00;99.90;;;;;;5027757;28;20314;-81
2020/12/05 02:45:40;;;;;;;44.10;25.70;;;2.00;99.90;;;;;;5027600;28;20807;-81
2020/12/05 02:48:06;;;;;;;42.92;27.88;;;2.10;99.90;;;;;;5027433;28;20212;-81
2020/12/05 02:50:33;;;;;;;44.85;27.50;;;2.10;99.90;;;;;;5026161;28;20312;-81
2020/12/05 02:52:59;;;;;;;43.67;28.05;;;2.10;99.90;;;;;;5027269;28;20196;-81
2020/12/05 02:55:25;;;;;;;53.22;29.40;;;2.10;99.90;;;;;;5027016;28;20208;-81
2020/12/05 02:57:52;;;;;;;37.88;24.30;;;2.10;99.90;;;;;;5027101;28;20300;-81
2020/12/05 03:00:19;;;;;;;42.47;26.10;;;2.10;99.90;;;;;;5026307;28;20235;-82
2020/12/05 03:02:45;;;;;;;39.53;26.92;;;2.10;99.90;;;;;;5026485;28;20251;-81
2020/12/05 03:05:12;;;;;;;40.50;26.13;;;2.10;99.90;;;;;;5025941;28;20239;-81
2020/12/05 03:07:38;;;;;;;43.50;27.30;;;2.10;99.90;;;;;;5027081;28;20204;-81
2020/12/05 03:10:04;;;;;;;42.28;26.60;;;2.10;99.90;;;;;;5027688;28;20291;-81
2020/12/05 03:12:30;;;;;;;40.45;26.33;;;2.10;99.90;;;;;;5027698;28;20251;-81
2020/12/05 03:14:58;;;;;;;42.05;27.05;;;2.10;99.90;;;;;;5027310;28;20203;-81
2020/12/05 03:17:24;;;;;;;37.72;24.77;;;2.10;99.90;;;;;;5026815;28;20200;-81
2020/12/05 03:19:50;;;;;;;37.40;23.05;;;2.10;99.90;;;;;;5027624;28;20215;-81
2020/12/05 03:22:17;;;;;;;35.28;25.23;;;2.10;99.90;;;;;;5027083;28;20236;-80
2020/12/05 03:24:43;;;;;;;40.08;25.02;;;2.10;99.90;;;;;;5027319;28;20208;-80
2020/12/05 03:27:09;;;;;;;38.30;25.85;;;2.10;99.90;;;;;;5027658;28;20204;-81
2020/12/05 03:29:38;;;;;;;43.20;25.80;;;2.10;99.90;;;;;;5029785;28;20204;-81
2020/12/05 03:32:09;;;;;;;37.45;24.27;;;2.10;99.90;;;;;;5031211;28;20295;-81
2020/12/05 03:34:36;;;;;;;35.53;23.73;;;2.10;99.90;;;;;;5031162;28;20261;-80
2020/12/05 03:37:02;;;;;;;43.13;25.45;;;2.00;99.90;;;;;;5030518;28;20268;-81
2020/12/05 03:39:28;;;;;;;41.03;26.95;;;2.00;99.90;;;;;;5030747;28;20202;-81
2020/12/05 03:41:55;;;;;;;38.78;23.92;;;2.00;99.90;;;;;;5031288;28;20228;-80
2020/12/05 03:44:21;;;;;;;43.67;25.20;;;2.00;99.90;;;;;;5031191;28;20208;-81
2020/12/05 03:46:47;;;;;;;37.35;25.10;;;2.00;99.90;;;;;;5031662;28;20208;-81
2020/12/05 03:49:14;;;;;;;43.35;25.80;;;2.00;99.90;;;;;;5031020;28;20204;-81
2020/12/05 03:51:41;;;;;;;38.08;25.20;;;2.00;99.90;;;;;;5031614;28;20224;-81
2020/12/05 03:54:07;;;;;;;42.10;23.70;;;1.90;99.90;;;;;;5031416;28;20271;-82
2020/12/05 03:56:33;;;;;;;41.78;25.58;;;2.00;99.90;;;;;;5030919;28;20236;-80
2020/12/05 03:59:00;;;;;;;42.17;25.75;;;2.00;99.90;;;;;;5031004;28;20208;-81
2020/12/05 04:01:26;;;;;;;42.72;25.73;;;2.00;99.90;;;;;;5030400;28;20266;-81
2020/12/05 04:03:52;;;;;;;39.22;25.63;;;2.00;99.90;;;;;;5030493;28;20296;-80
2020/12/05 04:06:19;;;;;;;36.45;25.55;;;2.00;99.90;;;;;;5031109;28;20200;-81
2020/12/05 04:08:46;;;;;;;38.25;24.25;;;2.10;99.90;;;;;;5031731;28;20261;-80
2020/12/05 04:11:12;;;;;;;35.67;23.10;;;2.20;99.90;;;;;;5036149;28;20228;-80
2020/12/05 04:13:39;;;;;;;34.83;23.40;;;2.20;99.90;;;;;;5030827;28;20209;-80
2020/12/05 04:16:05;;;;;;;40.10;27.98;;;2.30;99.90;;;;;;5030643;28;20209;-81
2020/12/05 04:18:31;;;;;;;34.63;25.38;;;2.30;99.90;;;;;;5030303;28;20268;-81
2020/12/05 04:20:58;;;;;;;37.63;24.10;;;2.20;99.90;;;;;;5029036;28;20585;-81
2020/12/05 04:23:25;;;;;;;33.95;22.85;;;2.20;99.90;;;;;;5031007;28;20590;-81
2020/12/05 04:25:51;;;;;;;40.25;23.23;;;2.30;99.90;;;;;;5031193;28;20673;-81
2020/12/05 04:28:19;;;;;;;36.42;22.60;;;2.20;99.90;;;;;;5033849;28;20204;-80
2020/12/05 04:30:45;;;;;;;36.72;23.92;;;2.10;99.90;;;;;;5038052;28;20231;-80
2020/12/05 04:33:11;;;;;;;38.95;25.38;;;2.10;99.90;;;;;;5038226;28;20271;-79
2020/12/05 04:35:39;;;;;;;37.30;23.73;;;2.00;99.90;;;;;;5037673;28;20219;-79
2020/12/05 04:38:05;;;;;;;38.17;24.38;;;2.00;99.90;;;;;;5033165;28;20240;-81
2020/12/05 04:40:32;;;;;;;33.45;21.98;;;2.00;99.90;;;;;;5030877;28;20224;-81
2020/12/05 04:43:01;;;;;;;34.85;23.63;;;2.00;99.90;;;;;;5029476;28;20283;-81
2020/12/05 04:45:28;;;;;;;38.13;23.25;;;1.90;99.90;;;;;;5029680;28;20208;-81
2020/12/05 04:47:57;;;;;;;39.97;23.40;;;1.90;99.90;;;;;;5029407;28;20214;-80
2020/12/05 04:50:24;;;;;;;35.03;23.40;;;1.90;99.90;;;;;;5030786;28;20214;-79
2020/12/05 04:52:52;;;;;;;34.95;23.23;;;2.00;99.90;;;;;;5030208;28;20287;-80
2020/12/05 04:55:23;;;;;;;33.08;23.27;;;1.90;99.90;;;;;;5030521;28;20235;-81
2020/12/05 04:57:56;;;;;;;34.95;23.15;;;1.90;99.90;;;;;;5030431;28;20509;-81
2020/12/05 05:00:23;;;;;;;40.88;23.15;;;1.90;99.90;;;;;;5028780;28;20261;-81
2020/12/05 05:02:50;;;;;;;33.00;24.25;;;1.90;99.90;;;;;;5029012;28;20248;-81
2020/12/05 05:05:16;;;;;;;34.38;22.40;;;1.90;99.90;;;;;;5030285;28;20204;-80
2020/12/05 05:07:50;;;;;;;35.40;22.95;;;2.00;99.90;;;;;;5028903;28;20610;-81
2020/12/05 05:10:19;;;;;;;37.00;23.45;;;2.00;99.90;;;;;;5028925;28;20223;-81
2020/12/05 05:12:46;;;;;;;31.40;21.58;;;2.00;99.90;;;;;;5028585;28;20200;-81
2020/12/05 05:15:28;;;;;;;31.92;22.42;;;2.00;99.90;;;;;;5029522;28;20209;-81
2020/12/05 05:17:54;;;;;;;34.28;22.52;;;2.10;99.90;;;;;;5030183;28;20211;-81
2020/12/05 05:20:21;;;;;;;32.28;21.73;;;2.20;99.90;;;;;;5028793;28;20196;-80
2020/12/05 05:22:49;;;;;;;35.25;22.23;;;2.30;99.90;;;;;;5028246;28;20212;-80
2020/12/05 05:25:15;;;;;;;34.90;22.42;;;2.20;99.90;;;;;;5028441;28;20205;-81
2020/12/05 05:27:41;;;;;;;31.95;21.77;;;2.20;99.90;;;;;;5028967;28;20271;-81
2020/12/05 05:30:09;;;;;;;31.83;21.08;;;2.20;99.90;;;;;;5028751;28;20272;-80
2020/12/05 05:32:44;;;;;;;29.00;20.83;;;2.20;99.90;;;;;;5029289;28;20268;-81
2020/12/05 05:35:12;;;;;;;32.03;19.98;;;2.40;99.90;;;;;;5029437;28;20231;-81
2020/12/05 05:37:40;;;;;;;34.30;21.55;;;2.30;99.90;;;;;;5029387;28;20188;-81
2020/12/05 05:40:09;;;;;;;30.63;20.42;;;2.30;99.90;;;;;;5028570;28;20208;-81
2020/12/05 05:42:37;;;;;;;32.97;21.60;;;2.30;99.90;;;;;;5028029;28;20231;-81
2020/12/05 05:45:16;;;;;;;35.22;21.88;;;2.20;99.90;;;;;;5027809;28;20204;-81
2020/12/05 05:47:44;;;;;;;28.52;20.83;;;2.30;99.90;;;;;;5029407;28;20192;-81
2020/12/05 05:50:21;;;;;;;31.13;22.08;;;2.30;99.90;;;;;;5032641;28;20210;-81
2020/12/05 05:52:58;;;;;;;35.28;22.20;;;2.30;99.90;;;;;;5026447;28;20228;-81
2020/12/05 05:55:40;;;;;;;31.42;20.85;;;2.30;99.90;;;;;;5027844;28;20184;-81
2020/12/05 05:58:07;;;;;;;29.92;21.42;;;2.30;99.90;;;;;;5026568;28;20239;-81
2020/12/05 06:00:38;;;;;;;29.25;21.85;;;2.30;99.90;;;;;;5037814;28;20239;-80
2020/12/05 06:03:16;;;;;;;36.85;21.98;;;2.30;99.90;;;;;;5038785;28;20228;-80
2020/12/05 06:05:45;;;;;;;30.98;21.95;;;2.30;99.90;;;;;;5038909;28;20176;-80
2020/12/05 06:08:17;;;;;;;30.17;21.25;;;2.30;99.90;;;;;;5038724;28;20224;-79
2020/12/05 06:10:48;;;;;;;31.30;21.45;;;2.30;99.90;;;;;;5038737;28;20227;-79
2020/12/05 06:13:18;;;;;;;34.22;21.98;;;2.30;99.90;;;;;;5038312;28;20241;-80
2020/12/05 06:15:45;;;;;;;35.00;22.25;;;2.30;99.90;;;;;;5037437;28;20173;-79
2020/12/05 06:18:14;;;;;;;31.10;20.65;;;2.10;99.90;;;;;;5034040;28;20224;-79
2020/12/05 06:23:17;;;;;;;34.67;22.30;;;2.20;99.90;;;;;;5084522;28;20233;-83
2020/12/05 06:25:49;;;;;;;34.00;24.00;;;2.10;99.90;;;;;;5087072;28;20278;-84
2020/12/05 06:28:16;;;;;;;28.27;20.33;;;2.10;99.90;;;;;;5087325;28;20274;-83
2020/12/05 06:30:45;;;;;;;31.88;22.52;;;2.00;99.90;;;;;;5086024;28;20261;-83
2020/12/05 06:33:32;;;;;;;31.98;22.55;;;1.90;99.90;;;;;;5068231;28;20203;-85
2020/12/05 06:35:58;;;;;;;34.25;21.67;;;2.00;99.90;;;;;;5066360;28;20197;-83
2020/12/05 06:38:25;;;;;;;38.17;23.38;;;2.10;99.90;;;;;;5065813;28;20713;-84
2020/12/05 06:40:51;;;;;;;41.05;23.83;;;2.00;99.90;;;;;;5060625;28;20609;-84
2020/12/05 06:43:18;;;;;;;30.15;21.13;;;2.00;99.90;;;;;;5060658;28;20314;-84
2020/12/05 06:45:44;;;;;;;36.63;22.65;;;2.00;99.90;;;;;;5060570;28;20290;-84
2020/12/05 06:48:33;;;;;;;32.55;20.05;;;2.10;99.90;;;;;;5061343;28;20226;-84
2020/12/05 06:51:00;;;;;;;35.40;22.48;;;2.10;99.90;;;;;;5061055;28;20254;-82
2020/12/05 06:53:31;;;;;;;30.98;21.73;;;2.20;99.90;;;;;;5065192;28;20286;-84
2020/12/05 06:55:57;;;;;;;35.40;22.80;;;2.20;99.90;;;;;;5060974;28;20303;-84
2020/12/05 06:58:25;;;;;;;34.75;21.50;;;2.20;99.90;;;;;;5061264;28;20213;-84
2020/12/05 07:00:52;;;;;;;33.25;21.40;;;2.20;99.90;;;;;;5061430;28;20703;-84
2020/12/05 07:03:26;;;;;;;31.77;21.67;;;2.30;99.90;;;;;;5061777;28;20323;-84
2020/12/05 07:05:54;;;;;;;39.25;20.35;;;2.40;99.90;;;;;;5065774;28;20209;-84
2020/12/05 07:08:32;;;;;;;33.85;21.45;;;2.40;99.90;;;;;;5065908;28;20253;-84
2020/12/05 07:11:01;;;;;;;31.52;20.17;;;2.40;99.90;;;;;;5068158;28;20261;-84
2020/12/05 07:13:37;;;;;;;36.25;20.63;;;2.40;99.90;;;;;;5071063;28;20195;-84
2020/12/05 07:16:18;;;;;;;28.52;19.52;;;2.40;99.90;;;;;;5070401;28;20183;-84
2020/12/05 07:18:47;;;;;;;27.73;20.70;;;2.40;99.90;;;;;;5074329;28;20202;-83
2020/12/05 07:21:15;;;;;;;36.25;22.08;;;2.40;99.90;;;;;;5067818;28;20450;-83
2020/12/05 07:23:42;;;;;;;27.20;20.13;;;2.40;99.90;;;;;;5061405;28;20734;-83
2020/12/05 07:26:08;;;;;;;29.98;20.13;;;2.30;99.90;;;;;;5060817;28;20199;-82
2020/12/05 07:28:35;;;;;;;28.00;19.60;;;2.30;99.90;;;;;;5060655;28;20213;-82
2020/12/05 07:31:03;;;;;;;30.15;19.58;;;2.30;99.90;;;;;;5061067;28;20308;-82
2020/12/05 07:33:29;;;;;;;30.80;22.20;;;2.30;99.90;;;;;;5065633;28;20282;-81
2020/12/05 07:35:58;;;;;;;43.40;21.23;;;2.30;99.90;;;;;;5062635;28;20599;-83
2020/12/05 07:38:28;;;;;;;37.17;22.23;;;2.40;99.90;;;;;;5060574;28;20442;-81
2020/12/05 07:40:54;;;;;;;41.45;22.10;;;2.40;99.90;;;;;;5061640;28;20305;-82
2020/12/05 07:43:23;;;;;;;25.23;18.48;;;2.40;99.90;;;;;;5061618;28;20229;-82
2020/12/05 07:45:51;;;;;;;32.95;22.23;;;2.40;99.90;;;;;;5059758;28;20701;-83
2020/12/05 07:48:21;;;;;;;30.23;21.17;;;2.30;99.90;;;;;;5061560;28;20213;-80
2020/12/05 07:50:48;;;;;;;31.45;20.73;;;2.30;99.90;;;;;;5061523;28;20205;-82
2020/12/05 07:53:27;;;;;;;27.02;19.40;;;2.30;99.90;;;;;;5062138;28;20206;-81
2020/12/05 07:55:54;;;;;;;30.73;20.63;;;2.40;99.90;;;;;;5065645;28;20206;-83
2020/12/05 07:58:20;;;;;;;28.83;20.33;;;2.40;99.90;;;;;;5059589;28;20272;-83
2020/12/05 08:00:48;;;;;;;32.38;20.77;;;2.50;99.90;;;;;;5058857;28;20291;-81
2020/12/05 08:04:01;;;;;;;29.25;20.60;;;2.50;99.90;;;;;;5059116;28;20479;-82
2020/12/05 08:06:45;;;;;;;30.63;22.65;;;2.50;99.90;;;;;;5046537;28;20437;-80
2020/12/05 08:09:18;;;;;;;33.25;22.55;;;2.50;99.90;;;;;;5064825;28;20195;-82
2020/12/05 08:11:52;;;;;;;37.08;20.83;;;2.50;99.90;;;;;;5060782;28;20322;-82
2020/12/05 08:14:19;;;;;;;34.15;21.42;;;2.50;99.90;;;;;;5059929;28;20191;-82
2020/12/05 08:16:46;;;;;;;34.10;22.75;;;2.50;99.90;;;;;;5060216;28;20206;-82
2020/12/05 08:19:12;;;;;;;36.13;22.45;;;2.60;99.90;;;;;;5071360;28;20527;-80
2020/12/05 08:21:39;;;;;;;33.65;22.23;;;2.70;99.90;;;;;;5076688;28;20314;-81
2020/12/05 08:24:08;;;;;;;32.30;21.90;;;2.70;99.90;;;;;;5072853;28;20317;-82
2020/12/05 08:26:38;;;;;;;30.10;20.60;;;2.90;99.90;;;;;;5065530;28;20234;-81
2020/12/05 08:29:06;;;;;;;28.60;20.48;;;3.00;99.90;;;;;;5066994;28;20293;-83
2020/12/05 08:31:39;;;;;;;30.35;20.80;;;3.10;99.90;;;;;;5064057;28;20225;-82
2020/12/05 08:34:05;;;;;;;34.63;22.38;;;3.10;99.90;;;;;;5067610;28;20226;-82
2020/12/05 08:36:34;;;;;;;32.42;21.55;;;3.10;99.90;;;;;;5066301;28;20207;-80
2020/12/05 08:39:05;;;;;;;29.35;19.48;;;3.20;99.90;;;;;;5066695;28;20205;-81
2020/12/05 08:41:41;;;;;;;30.52;21.15;;;3.30;99.90;;;;;;5067737;28;20314;-82
2020/12/05 08:44:12;;;;;;;34.85;24.02;;;3.40;99.90;;;;;;5067376;28;20210;-82
2020/12/05 08:46:41;;;;;;;28.23;19.88;;;3.40;99.90;;;;;;5066022;28;20290;-82
2020/12/05 08:49:18;;;;;;;27.80;20.63;;;3.50;99.90;;;;;;5064864;28;20432;-81
2020/12/05 08:51:46;;;;;;;31.67;20.48;;;3.60;99.90;;;;;;5065842;28;20223;-81
2020/12/05 08:54:14;;;;;;;25.25;19.02;;;3.80;99.90;;;;;;5065777;28;20210;-80
2020/12/05 08:56:42;;;;;;;24.77;17.80;;;3.90;99.90;;;;;;5066925;28;20245;-81
2020/12/05 08:59:08;;;;;;;26.85;18.70;;;4.00;99.90;;;;;;5069109;28;20491;-80
2020/12/05 09:01:36;;;;;;;26.05;18.55;;;4.10;99.90;;;;;;5064401;28;20446;-82
2020/12/05 09:04:03;;;;;;;25.48;18.20;;;4.10;99.90;;;;;;5063933;28;20223;-82
2020/12/05 09:06:29;;;;;;;23.38;18.20;;;4.10;99.90;;;;;;5063706;28;20203;-82
2020/12/05 09:08:55;;;;;;;23.13;19.17;;;4.20;99.90;;;;;;5064001;28;20495;-82
2020/12/05 09:11:22;;;;;;;24.77;19.50;;;4.20;99.90;;;;;;5061994;28;20509;-82
2020/12/05 09:13:50;;;;;;;22.33;17.52;;;4.30;99.90;;;;;;5061966;28;20932;-82
2020/12/05 09:16:16;;;;;;;23.65;17.27;;;4.20;99.90;;;;;;5059281;28;20697;-82
2020/12/05 09:18:44;;;;;;;27.17;20.83;;;4.50;99.90;;;;;;5059040;28;20203;-80
2020/12/05 09:21:16;;;;;;;23.15;16.10;;;4.60;99.90;;;;;;5060017;28;20253;-82
2020/12/05 09:23:46;;;;;;;22.75;17.65;;;4.70;99.90;;;;;;5061017;28;20251;-82
2020/12/05 09:26:12;;;;;;;18.92;15.23;;;4.70;99.90;;;;;;5058865;28;20647;-82
2020/12/05 09:28:39;;;;;;;18.13;15.52;;;4.90;99.90;;;;;;5058486;28;20761;-80
2020/12/05 09:31:07;;;;;;;26.05;15.98;;;4.90;99.90;;;;;;5061632;28;20305;-80
2020/12/05 09:33:34;;;;;;;22.77;15.00;;;5.00;99.90;;;;;;5069722;28;20263;-80
2020/12/05 09:36:01;;;;;;;22.13;16.02;;;5.00;99.90;;;;;;5068615;28;20231;-80
2020/12/05 09:38:27;;;;;;;21.05;15.15;;;4.90;99.90;;;;;;5071187;28;20213;-80
2020/12/05 09:40:53;;;;;;;19.83;16.65;;;4.90;99.90;;;;;;5071596;28;20290;-80
2020/12/05 09:43:19;;;;;;;24.48;17.50;;;4.90;99.90;;;;;;5068120;28;20223;-81
2020/12/05 09:45:46;;;;;;;25.85;15.32;;;5.00;99.90;;;;;;5063797;28;20209;-79
2020/12/05 09:48:17;;;;;;;19.83;14.88;;;5.00;99.90;;;;;;5069158;28;20199;-81
2020/12/05 09:50:44;;;;;;;23.65;16.25;;;5.00;99.90;;;;;;5066458;28;20280;-82
2020/12/05 09:53:12;;;;;;;21.55;15.50;;;5.00;99.90;;;;;;5070183;28;20659;-80
2020/12/05 09:55:42;;;;;;;23.88;16.02;;;5.10;99.90;;;;;;5072119;28;20283;-81
2020/12/05 09:58:08;;;;;;;19.92;14.40;;;5.10;99.90;;;;;;5071358;28;20255;-81
2020/12/05 10:00:35;;;;;;;18.85;14.82;;;5.20;99.90;;;;;;5070742;28;20731;-82
2020/12/05 10:03:01;;;;;;;19.63;14.52;;;5.30;99.90;;;;;;5067582;28;20225;-80
2020/12/05 10:05:28;;;;;;;19.75;14.88;;;5.40;99.90;;;;;;5065775;28;20213;-82
2020/12/05 10:07:54;;;;;;;19.90;14.70;;;5.50;99.90;;;;;;5064477;28;20211;-82
2020/12/05 10:10:21;;;;;;;18.10;14.18;;;5.60;99.90;;;;;;5064567;28;20202;-79
2020/12/05 10:12:47;;;;;;;20.63;14.57;;;5.70;99.90;;;;;;5063906;28;20225;-82
2020/12/05 10:15:16;;;;;;;18.92;15.77;;;5.80;99.90;;;;;;5062739;28;20199;-79
2020/12/05 10:17:43;;;;;;;18.15;14.90;;;5.90;99.90;;;;;;5063048;28;20675;-81
2020/12/05 10:20:10;;;;;;;16.70;13.88;;;6.00;99.90;;;;;;5059902;28;20275;-81
2020/12/05 10:22:37;;;;;;;20.40;17.08;;;6.10;99.90;;;;;;5059047;28;20232;-82
2020/12/05 10:25:05;;;;;;;21.25;15.38;;;6.20;99.90;;;;;;5058781;28;20231;-82
2020/12/05 10:27:31;;;;;;;22.00;14.73;;;6.20;99.90;;;;;;5057847;28;20723;-82
2020/12/05 10:29:59;;;;;;;19.00;15.32;;;6.20;99.90;;;;;;5057258;28;20211;-81
2020/12/05 10:32:25;;;;;;;21.10;15.52;;;6.30;99.90;;;;;;5056012;28;20714;-83
2020/12/05 10:34:52;;;;;;;19.95;16.02;;;6.30;99.90;;;;;;5057010;28;20294;-83
2020/12/05 10:37:18;;;;;;;17.85;14.40;;;6.40;99.90;;;;;;5056495;28;20203;-80
2020/12/05 10:39:45;;;;;;;20.15;15.63;;;6.40;99.90;;;;;;5056683;28;20235;-82
2020/12/05 10:42:11;;;;;;;20.55;15.75;;;6.40;99.90;;;;;;5056947;28;20617;-83
2020/12/05 10:44:38;;;;;;;15.95;12.55;;;6.50;99.90;;;;;;5057370;28;20707;-82
2020/12/05 10:47:04;;;;;;;16.98;13.82;;;6.60;99.90;;;;;;5057890;28;20286;-82
2020/12/05 10:49:30;;;;;;;19.10;14.15;;;6.70;99.90;;;;;;5063732;28;20289;-79
2020/12/05 10:51:57;;;;;;;20.67;14.90;;;6.70;99.90;;;;;;5069864;28;20223;-81
2020/12/05 10:54:24;;;;;;;19.70;12.98;;;6.80;99.90;;;;;;5058742;28;20195;-79
2020/12/05 10:56:51;;;;;;;17.50;13.25;;;7.00;99.90;;;;;;5066553;28;20203;-81
2020/12/05 10:59:18;;;;;;;17.33;12.07;;;7.00;99.90;;;;;;5067831;28;20266;-81
2020/12/05 11:01:44;;;;;;;17.73;14.23;;;7.00;99.90;;;;;;5060675;28;20233;-80
2020/12/05 11:04:10;;;;;;;16.58;13.48;;;7.10;99.90;;;;;;5057158;28;20215;-80
2020/12/05 11:06:37;;;;;;;17.70;14.20;;;7.10;99.90;;;;;;5058402;28;20227;-82
2020/12/05 11:09:04;;;;;;;19.80;13.23;;;7.20;99.90;;;;;;5057958;28;20228;-82
2020/12/05 11:11:30;;;;;;;20.42;14.32;;;7.20;99.90;;;;;;5057406;28;20310;-81
2020/12/05 11:13:58;;;;;;;16.98;12.48;;;7.20;99.90;;;;;;5057289;28;20596;-82
2020/12/05 11:16:24;;;;;;;15.23;12.15;;;7.10;99.90;;;;;;5057003;28;20202;-83
2020/12/05 11:18:52;;;;;;;18.30;13.00;;;7.10;99.90;;;;;;5057531;28;20203;-82
2020/12/05 11:21:18;;;;;;;21.27;12.80;;;7.10;99.90;;;;;;5057140;28;20674;-82
2020/12/05 11:23:45;;;;;;;21.67;13.32;;;7.10;99.90;;;;;;5056957;28;20211;-81
2020/12/05 11:26:11;;;;;;;15.65;12.27;;;7.10;99.90;;;;;;5057162;28;20215;-82
2020/12/05 11:28:38;;;;;;;20.75;13.57;;;7.10;99.90;;;;;;5058030;28;20400;-82
2020/12/05 11:31:06;;;;;;;19.98;12.82;;;7.20;99.90;;;;;;5057535;28;20285;-82
2020/12/05 11:33:32;;;;;;;18.23;13.32;;;7.20;99.90;;;;;;5058348;28;20615;-81
2020/12/05 11:35:59;;;;;;;20.52;14.65;;;7.20;99.90;;;;;;5058410;28;20203;-81
2020/12/05 11:38:25;;;;;;;27.02;14.80;;;7.20;99.90;;;;;;5058353;28;20296;-82
2020/12/05 11:40:52;;;;;;;17.55;13.27;;;7.30;99.90;;;;;;5058253;28;20305;-82
2020/12/05 11:43:18;;;;;;;20.80;13.45;;;7.40;99.90;;;;;;5057978;28;20213;-82
2020/12/05 11:45:46;;;;;;;20.77;14.45;;;7.50;99.90;;;;;;5058514;28;20197;-82
2020/12/05 11:48:13;;;;;;;17.75;14.40;;;7.50;99.90;;;;;;5057888;28;20689;-82
2020/12/05 11:50:39;;;;;;;18.45;14.25;;;7.60;99.90;;;;;;5061251;28;20203;-82
2020/12/05 11:53:06;;;;;;;18.98;13.52;;;7.70;99.90;;;;;;5062812;28;20211;-82
2020/12/05 11:55:33;;;;;;;19.50;14.15;;;7.70;99.90;;;;;;5062544;28;20435;-82
2020/12/05 11:57:59;;;;;;;16.65;14.52;;;7.60;99.90;;;;;;5062090;28;20213;-82
2020/12/05 12:00:26;;;;;;;21.95;15.80;;;7.70;99.90;;;;;;5062354;28;20207;-82
2020/12/05 12:02:53;;;;;;;22.25;15.77;;;7.70;99.90;;;;;;5064199;28;20227;-83
2020/12/05 12:05:20;;;;;;;19.42;14.10;;;7.70;99.90;;;;;;5065881;28;20254;-81
2020/12/05 12:07:47;;;;;;;18.48;13.70;;;7.80;99.90;;;;;;5066946;28;20672;-84
2020/12/05 12:10:13;;;;;;;18.52;14.13;;;7.80;99.90;;;;;;5066274;28;20262;-83
2020/12/05 12:12:41;;;;;;;19.25;13.63;;;7.70;99.90;;;;;;5069778;28;20103;-82
2020/12/05 12:15:08;;;;;;;20.27;14.50;;;7.60;99.90;;;;;;5065386;28;20545;-82
2020/12/05 12:17:34;;;;;;;19.67;14.70;;;7.60;99.90;;;;;;5062661;28;20477;-80
2020/12/05 12:20:03;;;;;;;18.38;13.80;;;7.50;99.90;;;;;;5065315;28;20335;-82
2020/12/05 12:22:30;;;;;;;18.30;14.48;;;7.50;99.90;;;;;;5062562;22;20231;-81
2020/12/05 12:24:56;;;;;;;24.67;15.23;;;7.40;99.90;;;;;;5034492;28;20255;-81
2020/12/05 12:27:22;;;;;;;18.33;13.52;;;7.50;99.90;;;;;;5035358;28;20205;-80
2020/12/05 12:29:49;;;;;;;20.35;14.00;;;7.40;99.90;;;;;;5033641;28;20219;-80
2020/12/05 12:32:15;;;;;;;19.25;14.50;;;7.30;99.90;;;;;;5033686;28;20229;-80
2020/12/05 12:34:42;;;;;;;19.73;13.27;;;7.30;99.90;;;;;;5034120;28;20232;-81
2020/12/05 12:37:08;;;;;;;23.50;15.50;;;7.30;99.90;;;;;;5034616;28;20247;-80
2020/12/05 12:39:35;;;;;;;19.48;14.35;;;7.40;99.90;;;;;;5033459;28;20212;-80
2020/12/05 12:42:02;;;;;;;18.98;14.32;;;7.30;99.90;;;;;;5030280;28;20229;-81
2020/12/05 12:44:28;;;;;;;19.50;13.70;;;7.30;99.90;;;;;;5026472;28;20303;-81